Time;durP1;ratioP1;P1;durP2;ratioP2;P2;SDS_P1;SDS_P2;PMS_P1;PMS_P2;Temp;Humidity;BMP_temperature;BMP_pressure;BME280_temperature;BME280_humidity;BME280_pressure;Samples;Min_cycle;Max_cycle;Signal;HPM_P1;HPM_P2
2022/02/10 00:20:40;;;;;;;29.88;18.92;;;;;;;9.47;73.81;101711.69;5034565;28;20054;-65
2022/02/10 00:34:09;;;;;;;33.97;19.38;;;;;;;9.39;73.73;101715.03;5003167;28;20049;-64
2022/02/10 00:37:09;;;;;;;31.33;18.65;;;;;;;9.51;74.22;101724.59;5008913;28;20095;-65
2022/02/10 00:40:01;;;;;;;31.67;18.10;;;;;;;9.49;74.30;101729.56;5032449;28;20057;-65
2022/02/10 00:42:24;;;;;;;31.50;19.85;;;;;;;9.32;74.99;101728.25;5018916;28;20073;-65
2022/02/10 00:44:52;;;;;;;32.60;19.38;;;;;;;9.39;74.53;101721.34;5030402;28;20053;-65
2022/02/10 00:47:19;;;;;;;30.98;18.48;;;;;;;9.39;75.16;101720.53;5032631;28;20496;-65
2022/02/10 00:49:47;;;;;;;31.42;18.85;;;;;;;9.28;75.25;101716.16;5020467;28;20053;-65
2022/02/10 00:52:15;;;;;;;37.92;19.40;;;;;;;9.18;75.92;101721.69;5013134;28;20049;-65
2022/02/10 00:54:42;;;;;;;30.92;19.10;;;;;;;9.41;74.97;101715.56;5021489;28;20057;-65
2022/02/10 00:57:11;;;;;;;31.92;19.58;;;;;;;9.24;75.21;101712.34;5018188;28;20058;-65
2022/02/10 01:00:05;;;;;;;33.58;19.88;;;;;;;9.00;76.32;101715.69;5017813;28;20054;-65
2022/02/10 01:07:03;;;;;;;31.95;19.63;;;;;;;9.08;76.42;101726.13;5032818;28;20555;-65
2022/02/10 01:24:36;;;;;;;32.50;19.85;;;;;;;8.96;78.20;101739.34;4999879;28;20053;-66
2022/02/10 01:29:49;;;;;;;33.42;20.40;;;;;;;8.80;79.33;101745.94;5026648;28;20054;-65
2022/02/10 01:32:18;;;;;;;37.53;21.67;;;;;;;8.59;79.71;101741.59;5024304;28;20053;-64
2022/02/10 01:34:51;;;;;;;37.38;21.42;;;;;;;8.70;80.04;101745.16;5037694;28;20408;-67
2022/02/10 01:37:19;;;;;;;35.22;21.25;;;;;;;8.69;80.05;101746.25;5031646;28;20046;-65
2022/02/10 01:39:51;;;;;;;34.33;21.13;;;;;;;8.72;80.27;101751.19;5024306;28;20053;-64
2022/02/10 01:43:04;;;;;;;34.05;21.83;;;;;;;8.66;80.62;101758.63;5046125;28;20068;-66
2022/02/10 02:04:23;;;;;;;36.47;21.60;;;;;;;8.56;80.67;101752.31;5019229;28;20061;-62
2022/02/10 02:06:52;;;;;;;35.35;21.77;;;;;;;8.68;81.52;101750.91;5027101;28;20041;-61
2022/02/10 02:09:21;;;;;;;38.43;21.53;;;;;;;8.85;80.63;101745.13;5035775;28;20056;-62
2022/02/10 02:11:55;;;;;;;35.35;20.90;;;;;;;8.92;79.94;101737.44;5027772;28;20288;-62
2022/02/10 02:14:24;;;;;;;35.67;21.85;;;;;;;8.74;80.15;101748.97;5009494;28;20410;-62
2022/02/10 02:16:57;;;;;;;34.95;21.80;;;;;;;8.36;81.48;101752.28;5025562;28;20034;-62
2022/02/10 02:19:24;;;;;;;34.85;21.95;;;;;;;8.49;81.80;101752.56;5016861;28;20733;-62
2022/02/10 02:21:57;;;;;;;39.00;22.60;;;;;;;8.58;81.71;101759.16;5017942;28;20069;-61
2022/02/10 02:24:24;;;;;;;36.20;22.60;;;;;;;8.64;81.40;101754.50;5017362;28;20057;-62
2022/02/10 02:26:53;;;;;;;31.25;20.80;;;;;;;8.81;80.54;101744.88;5036467;28;20052;-61
2022/02/10 02:30:08;;;;;;;34.13;20.75;;;;;;;8.82;80.61;101752.00;5036526;28;20053;-62
2022/02/10 02:32:22;;;;;;;39.15;20.90;;;;;;;8.73;80.75;101753.69;5027153;28;20061;-62
2022/02/10 02:35:20;;;;;;;35.67;20.80;;;;;;;8.71;81.27;101750.38;5036348;28;20053;-64
2022/02/10 03:07:50;;;;;;;27.88;17.33;;;;;;;8.57;80.05;101732.81;5016758;28;20065;-62
2022/02/10 03:12:47;;;;;;;25.05;16.75;;;;;;;8.68;80.95;101745.41;5027560;28;20045;-61
2022/02/10 03:15:32;;;;;;;25.42;16.90;;;;;;;8.70;80.60;101739.66;4997462;28;20060;-62
2022/02/10 04:05:04;;;;;;;31.95;20.10;;;;;;;8.04;79.10;101762.66;5033488;28;20057;-62
2022/02/10 04:20:56;;;;;;;36.05;20.50;;;;;;;8.09;79.95;101770.88;5013442;28;20060;-61
2022/02/10 04:23:43;;;;;;;36.20;21.15;;;;;;;8.12;79.95;101768.44;5019074;28;20057;-61
2022/02/10 05:01:19;;;;;;;41.60;19.85;;;;;;;7.94;79.16;101793.63;4996179;28;23644;-61
2022/02/10 05:12:27;;;;;;;33.22;19.80;;;;;;;7.87;80.14;101782.06;5022653;28;20397;-61
2022/02/10 05:18:22;;;;;;;34.30;20.52;;;;;;;7.85;80.65;101797.97;5038395;28;20493;-61
2022/02/10 05:23:04;;;;;;;37.85;19.50;;;;;;;8.19;79.18;101788.19;5037258;28;20050;-61
2022/02/10 05:34:10;;;;;;;33.42;20.08;;;;;;;8.12;78.30;101784.06;4931110;29;20051;-62
2022/02/10 05:36:39;;;;;;;35.95;20.05;;;;;;;8.07;78.42;101790.38;4936895;29;20059;-62
2022/02/10 05:39:14;;;;;;;33.85;18.73;;;;;;;8.00;78.49;101801.56;4979048;28;20066;-62
2022/02/10 05:55:39;;;;;;;29.95;18.52;;;;;;;8.25;77.13;101817.31;5033460;28;20053;-63
2022/02/10 06:47:53;;;;;;;30.67;18.48;;;;;;;7.89;78.85;101829.25;5032734;28;20072;-63
2022/02/10 06:53:36;;;;;;;39.20;18.20;;;;;;;8.26;77.87;101840.13;5022197;28;20061;-62
2022/02/10 08:00:19;;;;;;;47.03;26.02;;;;;;;8.65;76.12;101880.53;5010646;28;20068;-62
2022/02/10 08:49:55;;;;;;;40.65;21.10;;;;;;;9.00;75.00;101927.28;5022624;28;20065;-64
2022/02/10 09:06:00;;;;;;;33.83;21.23;;;;;;;9.27;73.94;101918.78;5037839;28;20065;-60
2022/02/10 09:47:21;;;;;;;33.78;19.67;;;;;;;9.63;72.02;101916.81;5034523;28;20053;-62
2022/02/10 10:02:15;;;;;;;32.17;17.55;;;;;;;9.76;70.90;101952.03;5006905;28;19921;-60
2022/02/10 10:04:55;;;;;;;30.00;18.48;;;;;;;9.73;70.95;101955.31;5025654;28;20057;-59
2022/02/10 10:07:32;;;;;;;32.10;18.13;;;;;;;9.79;70.65;101944.03;5036360;28;20057;-60
2022/02/10 10:21:12;;;;;;;33.28;17.15;;;;;;;10.23;69.54;101949.72;5025564;28;20045;-60
2022/02/10 10:54:29;;;;;;;25.77;14.93;;;;;;;10.05;69.01;101970.38;5023841;28;20053;-61
2022/02/10 10:57:03;;;;;;;24.45;13.90;;;;;;;10.55;67.93;101965.84;5002557;28;20054;-61
2022/02/10 11:00:04;;;;;;;20.25;12.48;;;;;;;10.42;68.10;101961.75;5018037;28;20405;-62
2022/02/10 11:42:07;;;;;;;16.42;9.77;;;;;;;11.26;64.34;101920.16;5031111;28;20049;-64
2022/02/10 12:36:55;;;;;;;14.13;7.90;;;;;;;10.67;70.41;101867.94;5034577;28;20071;-62
2022/02/10 13:03:03;;;;;;;16.15;6.97;;;;;;;11.19;71.83;101859.00;5032093;28;20465;-61
2022/02/10 14:13:25;;;;;;;11.30;6.65;;;;;;;11.62;66.46;101779.91;4994438;28;20410;-61
2022/02/10 14:18:32;;;;;;;14.25;8.75;;;;;;;11.82;65.56;101782.44;5020704;28;20052;-61
2022/02/10 14:21:05;;;;;;;11.57;6.93;;;;;;;11.84;65.57;101780.19;5021401;28;20044;-60
2022/02/10 14:26:30;;;;;;;11.10;5.75;;;;;;;12.06;65.07;101775.75;5030254;28;20061;-63
2022/02/10 14:28:58;;;;;;;12.25;6.55;;;;;;;12.28;64.42;101769.63;5031343;28;20041;-66
2022/02/10 14:31:26;;;;;;;12.32;6.43;;;;;;;12.41;63.80;101772.44;5001828;28;20045;-66
2022/02/10 14:33:54;;;;;;;12.18;6.22;;;;;;;12.20;63.62;101771.13;5036364;28;20045;-66
2022/02/10 14:42:43;;;;;;;12.48;6.45;;;;;;;12.13;63.78;101767.91;5028153;28;20041;-66
2022/02/10 16:17:16;;;;;;;10.38;6.20;;;;;;;12.26;60.42;101741.47;5028596;28;20060;-64
2022/02/10 16:19:46;;;;;;;11.90;6.70;;;;;;;12.04;61.00;101738.50;5034554;28;20045;-66
2022/02/10 16:24:49;;;;;;;12.50;7.05;;;;;;;12.16;60.46;101727.84;5027697;28;20049;-67
2022/02/10 16:27:28;;;;;;;13.65;7.00;;;;;;;12.24;60.82;101727.97;5028816;28;20529;-66
2022/02/10 16:30:07;;;;;;;10.73;6.38;;;;;;;12.04;61.26;101721.94;5029748;28;20053;-66
2022/02/10 16:32:40;;;;;;;10.63;6.53;;;;;;;12.16;61.13;101731.41;5011262;28;20160;-66
2022/02/10 16:35:12;;;;;;;11.32;6.25;;;;;;;12.11;61.33;101722.38;5002298;28;20053;-66
2022/02/10 16:37:46;;;;;;;10.35;6.78;;;;;;;12.06;61.74;101725.22;5006772;28;20083;-66
2022/02/10 16:40:18;;;;;;;12.15;6.82;;;;;;;12.31;61.33;101725.66;5031715;28;20045;-66
2022/02/10 16:42:51;;;;;;;11.75;6.88;;;;;;;12.28;61.46;101731.78;5021643;28;20046;-66
2022/02/10 16:45:24;;;;;;;12.63;6.80;;;;;;;12.36;60.79;101738.59;5023169;28;20045;-67
2022/02/10 16:47:59;;;;;;;12.32;7.28;;;;;;;12.08;61.03;101734.84;5002933;28;20512;-65
2022/02/10 16:50:32;;;;;;;11.98;7.15;;;;;;;12.05;61.48;101740.13;5027719;28;20049;-64
2022/02/10 16:53:09;;;;;;;13.18;7.50;;;;;;;11.99;61.65;101741.34;5036240;28;20041;-66
2022/02/10 16:56:00;;;;;;;13.48;6.82;;;;;;;11.99;61.97;101733.06;5033092;28;20489;-66
2022/02/10 16:58:41;;;;;;;12.70;6.78;;;;;;;11.97;61.76;101741.66;5029500;28;20053;-66
2022/02/10 17:20:43;;;;;;;13.07;7.68;;;;;;;11.45;65.10;101751.97;5015264;28;20049;-65
2022/02/10 17:26:09;;;;;;;16.02;8.05;;;;;;;11.56;65.94;101767.28;5037527;28;20539;-66
2022/02/10 17:28:38;;;;;;;;;;;;;;;11.06;67.47;101788.78;5019182;28;20061;-65
2022/02/10 17:33:51;;;;;;;13.63;5.30;;;;;;;9.10;80.21;101830.25;5028857;28;20046;-66
2022/02/10 17:36:30;;;;;;;8.75;3.80;;;;;;;8.58;83.41;101844.28;5030523;28;20060;-66
2022/02/10 17:42:04;;;;;;;7.88;3.35;;;;;;;8.12;87.81;101848.00;5025682;28;20292;-66
2022/02/10 17:53:03;;;;;;;8.32;3.25;;;;;;;7.21;90.44;101876.03;5024720;28;20046;-66
2022/02/10 17:55:31;;;;;;;7.15;3.80;;;;;;;7.12;90.05;101897.59;5027720;28;20056;-66
2022/02/10 17:57:58;;;;;;;7.80;3.22;;;;;;;6.98;89.03;101893.66;5043072;28;20056;-66
2022/02/10 18:00:26;;;;;;;9.15;3.00;;;;;;;7.20;89.04;101902.59;5032628;28;20057;-65
2022/02/10 18:02:58;;;;;;;10.73;3.10;;;;;;;6.97;87.81;101905.72;5028866;28;20049;-65
2022/02/10 18:08:01;;;;;;;9.50;3.33;;;;;;;6.94;90.18;101895.25;5008255;28;20056;-67
2022/02/10 18:13:40;;;;;;;10.55;4.40;;;;;;;6.99;90.82;101910.91;5021769;28;20049;-65
2022/02/10 18:16:01;;;;;;;7.47;3.92;;;;;;;7.04;90.97;101903.56;5008453;28;20054;-66
2022/02/10 18:18:42;;;;;;;12.90;4.30;;;;;;;7.01;90.47;101915.03;5036075;28;20046;-67
2022/02/10 18:21:28;;;;;;;13.65;4.75;;;;;;;6.91;91.61;101919.59;5001853;28;20049;-66
2022/02/10 19:08:06;;;;;;;3.38;1.80;;;;;;;6.21;84.03;101999.00;5035814;28;20140;-68
2022/02/10 19:10:36;;;;;;;3.78;1.23;;;;;;;6.03;83.74;102011.09;5025258;28;20050;-66
2022/02/10 19:13:03;;;;;;;5.15;1.33;;;;;;;5.97;84.30;102009.34;5015701;28;20046;-68
2022/02/10 19:15:34;;;;;;;3.45;1.45;;;;;;;6.11;84.56;102013.38;5034996;28;20038;-66
2022/02/10 19:18:04;;;;;;;3.17;1.42;;;;;;;6.10;83.58;102025.38;5022218;28;20555;-68
2022/02/10 19:20:33;;;;;;;4.20;1.25;;;;;;;5.93;84.10;102016.38;5018045;28;20109;-69
2022/02/10 19:23:03;;;;;;;3.72;1.52;;;;;;;5.94;84.10;102025.44;4998121;28;20050;-69
2022/02/10 19:25:32;;;;;;;4.03;1.50;;;;;;;5.79;84.11;102019.72;5029550;28;20105;-68
2022/02/10 19:27:59;;;;;;;4.83;2.20;;;;;;;5.99;83.93;102017.28;5004388;28;20524;-67
2022/02/10 19:30:29;;;;;;;6.22;2.35;;;;;;;6.34;83.15;102015.06;5034833;28;20306;-67
2022/02/10 19:32:59;;;;;;;7.95;3.40;;;;;;;6.41;82.96;102018.44;5031157;28;20049;-67
2022/02/10 19:35:29;;;;;;;7.32;3.33;;;;;;;6.05;83.00;102028.03;5000149;28;20072;-67
2022/02/10 19:38:00;;;;;;;8.47;4.33;;;;;;;6.43;82.87;102030.75;5032479;28;20057;-68
2022/02/10 19:40:30;;;;;;;6.05;2.40;;;;;;;6.52;82.18;102029.25;5027820;28;20524;-68
2022/02/10 19:42:57;;;;;;;;;;;;;;;6.11;83.58;102040.72;5042269;28;20060;-67
2022/02/10 19:45:25;;;;;;;6.25;1.90;;;;;;;6.15;84.56;102036.41;5028703;28;19928;-67
2022/02/10 19:47:52;;;;;;;5.50;2.05;;;;;;;5.93;85.12;102035.53;5017699;28;20052;-68
2022/02/10 19:50:26;;;;;;;5.30;2.28;;;;;;;6.06;86.54;102053.50;5016738;28;20057;-68
2022/02/10 19:52:57;;;;;;;5.03;2.10;;;;;;;5.93;86.00;102049.19;5018033;28;20061;-67
2022/02/10 19:55:25;;;;;;;5.03;1.75;;;;;;;5.90;87.37;102046.97;5023470;28;20503;-67
2022/02/10 19:57:57;;;;;;;6.35;3.22;;;;;;;5.99;87.47;102050.94;5034301;28;20112;-68
2022/02/10 20:00:31;;;;;;;5.63;2.38;;;;;;;6.02;88.16;102049.59;5015293;28;20049;-67
2022/02/10 20:03:00;;;;;;;6.63;2.78;;;;;;;5.89;89.88;102047.22;5011667;28;20060;-66
2022/02/10 20:05:27;;;;;;;12.20;6.18;;;;;;;6.13;89.52;102046.78;5031605;28;20029;-64
2022/02/10 20:07:55;;;;;;;6.70;2.60;;;;;;;6.35;87.96;102049.53;5039074;28;20053;-64
2022/02/10 20:10:23;;;;;;;6.38;2.67;;;;;;;5.99;90.08;102050.09;5030739;28;20060;-64
2022/02/10 20:12:51;;;;;;;7.88;2.70;;;;;;;6.00;89.85;102062.72;5033782;28;20052;-64
2022/02/10 20:15:21;;;;;;;8.10;2.92;;;;;;;5.80;90.95;102065.94;5031016;28;20041;-65
2022/02/10 20:17:51;;;;;;;9.50;3.60;;;;;;;6.03;90.58;102074.00;5030679;28;20061;-63
2022/02/10 20:20:18;;;;;;;4.93;3.08;;;;;;;5.93;91.06;102062.88;5029260;28;20065;-77
2022/02/10 20:22:46;;;;;;;12.23;4.63;;;;;;;5.67;92.74;102067.09;5034112;28;20049;-62
2022/02/10 20:25:33;;;;;;;7.95;4.22;;;;;;;5.70;93.08;102068.50;5033992;28;20052;-58
2022/02/10 20:28:00;;;;;;;13.30;7.30;;;;;;;5.76;93.54;102075.69;5032960;28;20050;-64
2022/02/10 20:30:27;;;;;;;9.00;5.53;;;;;;;5.69;93.12;102072.28;5033187;28;20053;-66
2022/02/10 20:32:55;;;;;;;6.78;3.42;;;;;;;5.69;92.90;102072.28;5033225;28;20049;-64
2022/02/10 20:35:22;;;;;;;8.68;3.17;;;;;;;5.72;91.75;102074.53;5027940;28;20049;-63
2022/02/10 20:37:56;;;;;;;7.63;3.90;;;;;;;5.60;91.77;102077.34;5026024;28;20397;-65
2022/02/10 20:40:24;;;;;;;6.90;2.95;;;;;;;5.67;91.68;102064.34;5034536;28;20053;-66
2022/02/10 20:42:51;;;;;;;7.57;2.97;;;;;;;5.56;91.28;102053.50;5034647;28;20049;-63
2022/02/10 20:45:18;;;;;;;6.88;2.90;;;;;;;5.88;91.00;102053.75;5030805;28;20750;-65
2022/02/10 20:47:45;;;;;;;4.45;2.35;;;;;;;6.06;89.35;102076.22;5034284;28;20520;-64
2022/02/10 20:50:13;;;;;;;5.38;2.28;;;;;;;5.68;89.29;102087.06;5036899;28;20041;-65
2022/02/10 20:52:40;;;;;;;5.00;2.50;;;;;;;5.85;89.62;102087.91;5038115;28;20068;-65
2022/02/10 20:55:07;;;;;;;7.30;2.70;;;;;;;5.71;89.27;102095.59;5033652;28;20052;-65
2022/02/10 20:57:35;;;;;;;6.20;2.85;;;;;;;5.54;89.23;102097.44;5034724;28;20420;-65
2022/02/10 21:00:11;;;;;;;6.40;2.30;;;;;;;5.62;90.20;102105.25;5034080;28;20041;-65
2022/02/10 21:02:43;;;;;;;7.68;2.63;;;;;;;5.76;90.80;102103.03;5036976;28;20049;-65
2022/02/10 21:07:54;;;;;;;6.30;2.58;;;;;;;5.81;90.58;102110.47;5041626;28;20069;-65
2022/02/10 21:10:24;;;;;;;6.22;2.50;;;;;;;5.95;89.06;102114.56;5024395;28;20053;-64
2022/02/10 21:12:51;;;;;;;5.20;2.78;;;;;;;5.55;90.76;102109.22;5038317;28;20053;-66
2022/02/10 21:15:25;;;;;;;6.47;3.10;;;;;;;5.87;91.14;102112.25;5033352;28;20062;-65
2022/02/10 21:17:58;;;;;;;6.53;3.00;;;;;;;5.65;90.64;102117.59;5033084;28;20068;-65
2022/02/10 21:20:31;;;;;;;6.43;2.78;;;;;;;5.54;90.59;102115.78;5037909;28;20489;-65
2022/02/10 21:25:42;;;;;;;7.15;2.80;;;;;;;5.73;90.16;102118.03;5037077;28;20045;-64
2022/02/10 21:28:22;;;;;;;7.15;3.42;;;;;;;5.86;89.33;102118.81;5049927;28;20048;-64
2022/02/10 21:30:53;;;;;;;8.20;3.20;;;;;;;5.59;90.16;102118.59;5031826;28;20057;-64
2022/02/10 21:33:28;;;;;;;8.15;3.17;;;;;;;5.48;89.73;102124.94;5031911;28;20061;-64
2022/02/10 21:38:38;;;;;;;7.65;4.10;;;;;;;5.86;89.56;102125.09;5031012;28;20080;-64
2022/02/10 21:47:37;;;;;;;8.60;3.40;;;;;;;5.84;89.58;102126.44;5035328;28;20059;-63
2022/02/10 22:06:15;;;;;;;5.82;3.15;;;;;;;5.58;90.28;102131.41;5031138;28;20061;-63
2022/02/10 22:19:21;;;;;;;6.40;3.55;;;;;;;5.59;90.61;102144.03;5033526;28;20050;-63
2022/02/10 22:21:57;;;;;;;9.20;3.28;;;;;;;5.85;90.36;102149.97;5018822;28;20053;-63
2022/02/10 22:24:26;;;;;;;7.65;3.97;;;;;;;5.98;89.47;102144.19;5016033;28;20640;-63
2022/02/10 22:26:54;;;;;;;8.20;3.65;;;;;;;6.15;88.15;102145.00;5034371;28;20057;-63
2022/02/10 22:29:29;;;;;;;7.93;3.90;;;;;;;6.12;88.18;102150.97;4998866;28;20057;-63
2022/02/10 22:34:36;;;;;;;12.85;4.38;;;;;;;6.21;88.21;102158.50;5027348;28;20057;-62
2022/02/10 22:37:07;;;;;;;8.25;3.50;;;;;;;6.22;87.29;102160.19;4997397;28;20049;-63
2022/02/10 22:39:43;;;;;;;11.70;5.00;;;;;;;5.89;87.77;102164.81;5036647;28;20057;-63
2022/02/10 22:42:11;;;;;;;9.45;4.20;;;;;;;6.21;87.89;102163.13;5031264;28;20441;-63
2022/02/10 22:44:39;;;;;;;8.73;3.97;;;;;;;5.87;86.81;102173.25;5006346;28;20652;-64
2022/02/10 22:47:07;;;;;;;6.63;4.00;;;;;;;5.71;88.27;102169.41;5032555;28;20045;-65
2022/02/10 22:49:35;;;;;;;7.35;4.13;;;;;;;5.64;89.27;102165.16;5033362;28;20056;-64
2022/02/10 22:52:03;;;;;;;8.13;4.32;;;;;;;5.86;89.06;102165.31;5025310;28;20053;-63
2022/02/10 22:54:31;;;;;;;9.50;4.70;;;;;;;5.75;89.22;102167.00;5014729;28;20041;-62
2022/02/10 22:56:58;;;;;;;8.75;4.70;;;;;;;5.72;88.62;102168.31;5009444;28;20045;-63
2022/02/10 22:59:26;;;;;;;10.65;4.35;;;;;;;5.74;88.68;102166.16;5036411;28;20054;-62
2022/02/10 23:01:55;;;;;;;10.75;5.60;;;;;;;5.65;88.37;102166.78;5009198;28;20060;-63
2022/02/10 23:04:22;;;;;;;8.82;5.40;;;;;;;5.86;88.69;102159.84;5036122;28;20485;-63
2022/02/10 23:06:54;;;;;;;12.82;5.53;;;;;;;5.77;88.81;102166.75;5034140;28;20050;-62
2022/02/10 23:09:38;;;;;;;12.95;6.50;;;;;;;5.91;88.41;102168.94;5032309;28;20049;-63
2022/02/10 23:12:07;;;;;;;13.63;7.20;;;;;;;6.24;87.10;102173.59;5007641;28;20133;-62
2022/02/10 23:14:34;;;;;;;14.60;7.22;;;;;;;5.96;86.29;102176.41;5019726;28;20053;-63
2022/02/10 23:17:01;;;;;;;14.15;7.80;;;;;;;5.81;86.73;102187.03;5009864;28;20408;-63
2022/02/10 23:19:29;;;;;;;16.80;8.02;;;;;;;6.28;85.08;102189.25;5033356;28;20607;-62
2022/02/10 23:21:56;;;;;;;14.70;7.68;;;;;;;6.12;84.71;102197.47;5013055;28;20060;-63
2022/02/10 23:24:23;;;;;;;13.35;7.78;;;;;;;5.93;84.39;102202.34;5034182;28;20152;-62
2022/02/10 23:26:51;;;;;;;13.07;7.35;;;;;;;5.90;84.91;102202.00;5026467;28;20049;-61
2022/02/10 23:29:19;;;;;;;15.02;9.15;;;;;;;5.81;85.15;102207.00;5031594;28;20057;-63
2022/02/10 23:31:46;;;;;;;16.10;8.80;;;;;;;5.69;85.94;102203.50;5035590;28;20072;-63
2022/02/10 23:34:13;;;;;;;15.18;9.32;;;;;;;5.64;86.68;102215.19;5019164;28;20054;-62
2022/02/10 23:39:22;;;;;;;13.85;8.95;;;;;;;5.46;86.98;102212.63;5035225;28;20505;-63
2022/02/10 23:44:39;;;;;;;14.10;8.32;;;;;;;5.47;86.90;102214.28;5033828;28;20060;-62
2022/02/10 23:47:17;;;;;;;17.95;8.77;;;;;;;5.36;87.45;102208.88;5020857;28;20050;-64
2022/02/10 23:49:45;;;;;;;16.75;8.38;;;;;;;5.36;87.34;102222.53;5015725;28;20049;-63
2022/02/10 23:52:15;;;;;;;15.38;8.65;;;;;;;5.15;87.87;102221.28;5020143;28;20050;-62
2022/02/10 23:54:52;;;;;;;15.82;8.30;;;;;;;5.28;88.25;102222.91;5012339;28;20045;-64
2022/02/10 23:57:40;;;;;;;16.48;8.40;;;;;;;5.35;87.63;102227.16;5028193;28;20053;-62
